Time;durP1;ratioP1;P1;durP2;ratioP2;P2;SDS_P1;SDS_P2;PMS_P1;PMS_P2;Temp;Humidity;BMP_temperature;BMP_pressure;BME280_temperature;BME280_humidity;BME280_pressure;Samples;Min_cycle;Max_cycle;Signal;HPM_P1;HPM_P2
2021/12/23 00:01:19;;;;;;;18.95;11.07;;;-0.90;99.90;;;;;;5076446;28;20040;-58
2021/12/23 00:03:45;;;;;;;20.10;12.68;;;-0.80;99.90;;;;;;5076960;28;20106;-60
2021/12/23 00:06:11;;;;;;;18.83;11.23;;;-0.80;99.90;;;;;;5077049;28;20037;-58
2021/12/23 00:08:37;;;;;;;20.02;11.57;;;-0.80;99.90;;;;;;5076414;28;20056;-58
2021/12/23 00:11:03;;;;;;;21.48;12.88;;;-0.80;99.90;;;;;;5076631;28;20048;-58
2021/12/23 00:13:29;;;;;;;20.35;11.45;;;-0.80;99.90;;;;;;5076332;28;20100;-58
2021/12/23 00:23:47;;;;;;;17.50;11.43;;;-0.80;99.90;;;;;;5076561;28;20503;-57
2021/12/23 00:26:13;;;;;;;19.77;11.15;;;-0.70;99.90;;;;;;5074830;28;20063;-59
2021/12/23 00:28:39;;;;;;;19.70;11.38;;;-0.70;99.90;;;;;;5076487;28;20507;-58
2021/12/23 00:31:06;;;;;;;18.85;11.68;;;-0.70;99.90;;;;;;5075273;28;20041;-59
2021/12/23 00:33:35;;;;;;;19.13;10.95;;;-0.60;99.90;;;;;;5076818;28;20041;-58
2021/12/23 00:36:04;;;;;;;20.10;11.88;;;-0.60;99.90;;;;;;5076746;28;20033;-58
2021/12/23 00:38:34;;;;;;;21.95;11.07;;;-0.70;99.90;;;;;;5075616;28;20123;-57
2021/12/23 00:41:02;;;;;;;22.15;11.88;;;-0.80;99.90;;;;;;5076403;28;20104;-59
2021/12/23 00:43:30;;;;;;;20.13;11.25;;;-0.70;99.90;;;;;;5075867;28;20083;-58
2021/12/23 00:45:56;;;;;;;21.10;12.27;;;-0.80;99.90;;;;;;5076449;28;20040;-58
2021/12/23 00:48:22;;;;;;;18.60;12.23;;;-0.80;99.90;;;;;;5074968;28;20094;-58
2021/12/23 00:50:48;;;;;;;19.63;11.82;;;-0.80;99.90;;;;;;5067451;28;20044;-58
2021/12/23 00:53:19;;;;;;;18.00;10.70;;;-0.80;99.90;;;;;;5095698;28;20047;-58
2021/12/23 00:55:52;;;;;;;21.55;11.55;;;-0.80;99.90;;;;;;5080315;28;20067;-58
2021/12/23 00:58:18;;;;;;;18.23;10.55;;;-0.70;99.90;;;;;;5075578;28;20078;-58
2021/12/23 01:00:45;;;;;;;17.83;10.18;;;-0.70;99.90;;;;;;5075246;28;20139;-58
2021/12/23 01:03:11;;;;;;;19.02;12.13;;;-0.60;99.90;;;;;;5080394;28;20552;-58
2021/12/23 01:05:37;;;;;;;17.33;10.48;;;-0.60;99.90;;;;;;5079004;28;20097;-58
2021/12/23 01:08:04;;;;;;;21.48;11.55;;;-0.60;99.90;;;;;;5079925;28;20043;-57
2021/12/23 01:10:30;;;;;;;18.90;11.43;;;-0.50;99.90;;;;;;5080456;28;20408;-58
2021/12/23 01:13:03;;;;;;;19.70;10.57;;;-0.60;99.90;;;;;;5079610;28;20044;-58
2021/12/23 01:18:08;;;;;;;19.67;11.60;;;-0.50;99.90;;;;;;5079345;28;19966;-58
2021/12/23 01:20:36;;;;;;;18.98;11.15;;;-0.50;99.90;;;;;;5079493;28;20131;-58
2021/12/23 01:23:07;;;;;;;20.27;11.00;;;-0.40;99.90;;;;;;5078255;28;20060;-58
2021/12/23 01:25:35;;;;;;;16.63;10.52;;;-0.60;99.90;;;;;;5079447;28;20110;-58
2021/12/23 01:28:00;;;;;;;21.33;11.80;;;-0.50;99.90;;;;;;5078090;28;20055;-58
2021/12/23 01:30:26;;;;;;;19.00;11.05;;;-0.60;99.90;;;;;;5077837;28;20063;-57
2021/12/23 01:32:54;;;;;;;19.60;11.10;;;-0.40;99.90;;;;;;5079640;28;20033;-58
2021/12/23 01:35:21;;;;;;;22.70;12.40;;;-0.40;99.90;;;;;;5079736;28;20040;-58
2021/12/23 01:37:47;;;;;;;18.23;11.38;;;-0.40;99.90;;;;;;5079610;28;20519;-57
2021/12/23 01:40:15;;;;;;;20.77;12.05;;;-0.40;99.90;;;;;;5079863;28;20056;-57
2021/12/23 01:42:41;;;;;;;18.75;11.32;;;-0.40;99.90;;;;;;5078123;28;20040;-58
2021/12/23 01:45:14;;;;;;;19.23;12.10;;;-0.30;99.90;;;;;;5079592;28;20053;-58
2021/12/23 01:47:41;;;;;;;21.33;12.80;;;-0.30;99.90;;;;;;5079210;28;20052;-58
2021/12/23 01:50:11;;;;;;;23.20;11.52;;;-0.40;99.90;;;;;;5082887;28;20052;-57
2021/12/23 01:52:38;;;;;;;22.02;12.23;;;-0.40;99.90;;;;;;5099807;28;20048;-59
2021/12/23 01:55:10;;;;;;;20.90;13.30;;;-0.50;99.90;;;;;;5088765;28;20045;-58
2021/12/23 01:57:37;;;;;;;24.75;14.57;;;-0.50;99.90;;;;;;5079816;28;20036;-58
2021/12/23 02:00:08;;;;;;;27.05;14.23;;;-0.50;99.90;;;;;;5077513;28;20037;-58
2021/12/23 02:02:34;;;;;;;22.88;14.07;;;-0.50;99.90;;;;;;5079039;28;20046;-58
2021/12/23 02:05:00;;;;;;;25.52;14.75;;;-0.50;99.90;;;;;;5078688;28;20119;-58
2021/12/23 02:07:26;;;;;;;23.52;14.15;;;-0.60;99.90;;;;;;5077395;28;20041;-58
2021/12/23 02:09:55;;;;;;;26.33;13.60;;;-0.50;99.90;;;;;;5078450;28;20052;-57
2021/12/23 02:12:21;;;;;;;22.50;13.77;;;-0.50;99.90;;;;;;5078818;28;20040;-59
2021/12/23 02:14:47;;;;;;;22.95;13.02;;;-0.50;99.90;;;;;;5060188;28;20068;-58
2021/12/23 02:17:13;;;;;;;21.17;12.38;;;-0.50;99.90;;;;;;5078557;28;20060;-58
2021/12/23 02:19:39;;;;;;;23.67;13.20;;;-0.40;99.90;;;;;;5078507;28;20036;-57
2021/12/23 02:22:04;;;;;;;24.00;13.95;;;-0.50;99.90;;;;;;5078448;28;20078;-59
2021/12/23 02:24:30;;;;;;;21.45;13.43;;;-0.40;99.90;;;;;;5077247;28;20048;-59
2021/12/23 02:26:56;;;;;;;22.65;13.15;;;-0.40;99.90;;;;;;5077082;28;20056;-58
2021/12/23 02:29:22;;;;;;;23.02;13.38;;;-0.40;99.90;;;;;;5078729;28;20076;-58
2021/12/23 02:31:49;;;;;;;22.58;13.57;;;-0.40;99.90;;;;;;5078641;28;20127;-59
2021/12/23 02:34:16;;;;;;;23.33;13.60;;;-0.40;99.90;;;;;;5078540;28;20413;-59
2021/12/23 02:36:47;;;;;;;21.63;12.95;;;-0.40;99.90;;;;;;5077170;28;20131;-58
2021/12/23 02:39:13;;;;;;;22.13;12.25;;;-0.40;99.90;;;;;;5078316;28;20444;-58
2021/12/23 02:41:42;;;;;;;21.25;12.45;;;-0.30;99.90;;;;;;5076988;28;20040;-58
2021/12/23 02:44:08;;;;;;;20.70;13.13;;;-0.40;99.90;;;;;;5076224;28;20036;-58
2021/12/23 02:46:35;;;;;;;23.20;12.68;;;-0.40;99.90;;;;;;5078194;28;20044;-59
2021/12/23 02:49:02;;;;;;;18.75;12.88;;;-0.40;99.90;;;;;;5076865;28;20059;-58
2021/12/23 02:51:28;;;;;;;19.88;12.55;;;-0.40;99.90;;;;;;5091261;28;20056;-58
2021/12/23 02:53:53;;;;;;;22.50;13.15;;;-0.40;99.90;;;;;;5096672;28;20044;-59
2021/12/23 02:56:20;;;;;;;22.02;12.55;;;-0.40;99.90;;;;;;5077500;28;20131;-58
2021/12/23 02:58:46;;;;;;;23.73;14.02;;;-0.40;99.90;;;;;;5077552;28;20067;-58
2021/12/23 03:01:13;;;;;;;22.30;13.32;;;-0.30;99.90;;;;;;5077905;28;20040;-58
2021/12/23 03:03:40;;;;;;;23.80;13.63;;;-0.40;99.90;;;;;;5077674;28;20092;-58
2021/12/23 03:06:06;;;;;;;23.45;13.68;;;-0.40;99.90;;;;;;5077752;28;20098;-57
2021/12/23 03:08:47;;;;;;;24.63;13.93;;;-0.40;99.90;;;;;;5077641;28;20057;-58
2021/12/23 03:11:16;;;;;;;21.33;12.65;;;-0.40;99.90;;;;;;5077521;28;20421;-58
2021/12/23 03:13:42;;;;;;;21.02;12.77;;;-0.40;99.90;;;;;;5077147;28;20051;-57
2021/12/23 03:16:12;;;;;;;21.30;12.93;;;-0.40;99.90;;;;;;5077659;28;20040;-58
2021/12/23 03:18:39;;;;;;;21.27;12.32;;;-0.40;99.90;;;;;;5077493;28;20068;-58
2021/12/23 03:21:06;;;;;;;23.98;13.35;;;-0.40;99.90;;;;;;5077673;28;20076;-59
2021/12/23 03:23:32;;;;;;;23.08;14.15;;;-0.40;99.90;;;;;;5077652;28;20037;-58
2021/12/23 03:25:59;;;;;;;24.70;13.05;;;-0.40;99.90;;;;;;5077064;28;20044;-58
2021/12/23 03:28:25;;;;;;;22.67;13.05;;;-0.40;99.90;;;;;;5077273;28;20052;-58
2021/12/23 03:30:51;;;;;;;23.23;13.27;;;-0.40;99.90;;;;;;5077319;28;20075;-58
2021/12/23 03:33:18;;;;;;;19.48;12.15;;;-0.40;99.90;;;;;;5076155;28;20048;-58
2021/12/23 03:35:44;;;;;;;23.25;13.50;;;-0.30;99.90;;;;;;5077037;28;20075;-58
2021/12/23 03:38:11;;;;;;;24.80;13.60;;;-0.30;99.90;;;;;;5076313;28;20078;-58
2021/12/23 03:40:37;;;;;;;23.88;13.93;;;-0.30;99.90;;;;;;5077200;28;20052;-58
2021/12/23 03:43:03;;;;;;;25.75;14.30;;;-0.30;99.90;;;;;;5076806;28;20045;-57
2021/12/23 03:45:29;;;;;;;22.55;13.93;;;-0.30;99.90;;;;;;5077068;28;20094;-58
2021/12/23 03:47:55;;;;;;;26.20;13.45;;;-0.30;99.90;;;;;;5077227;28;20054;-58
2021/12/23 03:50:23;;;;;;;24.48;13.77;;;-0.30;99.90;;;;;;5082393;28;20040;-58
2021/12/23 03:52:49;;;;;;;23.60;13.35;;;-0.30;99.90;;;;;;5095969;28;20472;-59
2021/12/23 03:55:18;;;;;;;20.63;13.27;;;-0.30;99.90;;;;;;5083132;28;20098;-58
2021/12/23 03:57:46;;;;;;;22.90;12.90;;;-0.30;99.90;;;;;;5077361;28;20044;-58
2021/12/23 04:00:16;;;;;;;24.25;13.68;;;-0.30;99.90;;;;;;5075471;28;20072;-59
2021/12/23 04:02:42;;;;;;;23.10;13.80;;;-0.30;99.90;;;;;;5077065;28;20045;-58
2021/12/23 04:05:09;;;;;;;23.60;13.48;;;-0.30;99.90;;;;;;5076517;28;20045;-58
2021/12/23 04:07:36;;;;;;;21.52;13.02;;;-0.30;99.90;;;;;;5076592;28;20075;-58
2021/12/23 04:10:04;;;;;;;27.15;14.90;;;-0.30;99.90;;;;;;5075484;28;20519;-58
2021/12/23 04:12:29;;;;;;;23.65;14.18;;;-0.30;99.90;;;;;;5075388;28;20068;-57
2021/12/23 04:14:55;;;;;;;23.20;13.52;;;-0.30;99.90;;;;;;5074962;28;20070;-57
2021/12/23 04:17:21;;;;;;;25.73;14.20;;;-0.20;99.90;;;;;;5075230;28;20070;-58
2021/12/23 04:19:48;;;;;;;24.38;14.50;;;-0.30;99.90;;;;;;5076556;28;20045;-58
2021/12/23 04:22:14;;;;;;;25.63;15.07;;;-0.30;99.90;;;;;;5074812;28;20068;-58
2021/12/23 04:24:40;;;;;;;22.88;14.02;;;-0.30;99.90;;;;;;5075151;28;20067;-58
2021/12/23 04:27:07;;;;;;;23.88;14.20;;;-0.30;99.90;;;;;;5076588;28;20044;-57
2021/12/23 04:29:33;;;;;;;25.77;14.93;;;-0.10;99.90;;;;;;5058663;28;20466;-57
2021/12/23 04:32:01;;;;;;;25.48;15.20;;;-0.30;99.90;;;;;;5076405;28;20037;-58
2021/12/23 04:34:28;;;;;;;23.27;13.10;;;-0.30;99.90;;;;;;5076349;28;20037;-58
2021/12/23 04:36:53;;;;;;;22.90;13.75;;;-0.30;99.90;;;;;;5077662;28;20041;-58
2021/12/23 04:39:19;;;;;;;24.70;14.85;;;-0.20;99.90;;;;;;5079820;28;20055;-58
2021/12/23 04:41:45;;;;;;;24.23;14.43;;;-0.30;99.90;;;;;;5079037;28;20051;-58
2021/12/23 04:44:11;;;;;;;22.80;14.20;;;-0.30;99.90;;;;;;5061779;28;20048;-59
2021/12/23 04:46:37;;;;;;;25.83;13.80;;;-0.20;99.90;;;;;;5078683;28;20033;-58
2021/12/23 04:49:06;;;;;;;29.38;15.18;;;-0.30;99.90;;;;;;5079016;28;20044;-58
2021/12/23 04:51:31;;;;;;;26.55;15.13;;;-0.30;99.90;;;;;;5094958;28;20040;-60
2021/12/23 04:53:57;;;;;;;22.98;13.45;;;-0.30;99.90;;;;;;5097842;28;20059;-58
2021/12/23 04:56:23;;;;;;;25.67;15.93;;;-0.30;99.90;;;;;;5079902;28;20051;-58
2021/12/23 04:58:49;;;;;;;26.10;14.93;;;-0.20;99.90;;;;;;5078487;28;20060;-58
2021/12/23 05:01:27;;;;;;;26.77;14.70;;;-0.20;99.90;;;;;;5079691;28;20079;-58
2021/12/23 05:03:54;;;;;;;23.48;14.02;;;-0.20;99.90;;;;;;5079992;28;20055;-58
2021/12/23 05:06:22;;;;;;;22.67;13.88;;;-0.20;99.90;;;;;;5079716;28;20045;-58
2021/12/23 05:08:47;;;;;;;24.05;14.07;;;-0.20;99.90;;;;;;5079690;28;20064;-58
2021/12/23 05:11:14;;;;;;;25.20;14.25;;;-0.20;99.90;;;;;;5079320;28;20052;-59
2021/12/23 05:13:39;;;;;;;25.52;14.32;;;-0.20;99.90;;;;;;5079341;28;20157;-60
2021/12/23 05:16:06;;;;;;;25.90;14.60;;;-0.20;99.90;;;;;;5061988;28;20052;-59
2021/12/23 05:18:31;;;;;;;25.00;14.73;;;0.20;99.90;;;;;;5079804;28;20610;-59
2021/12/23 05:20:57;;;;;;;25.15;14.20;;;-0.10;99.90;;;;;;5079643;28;20064;-58
2021/12/23 05:23:23;;;;;;;24.40;14.07;;;-0.10;99.90;;;;;;5079702;28;20108;-59
2021/12/23 05:25:49;;;;;;;25.27;16.20;;;-0.10;99.90;;;;;;5079517;28;20040;-58
2021/12/23 05:28:15;;;;;;;24.83;15.10;;;-0.10;99.90;;;;;;5079101;28;20088;-58
2021/12/23 05:30:41;;;;;;;26.95;14.88;;;-0.10;99.90;;;;;;5079304;28;20077;-59
2021/12/23 05:33:06;;;;;;;26.98;15.32;;;-0.10;99.90;;;;;;5079664;28;20046;-58
2021/12/23 05:35:32;;;;;;;26.52;15.35;;;0.00;99.90;;;;;;5079358;28;20067;-58
2021/12/23 05:37:58;;;;;;;22.88;14.32;;;-0.10;99.90;;;;;;5078032;28;20078;-58
2021/12/23 05:40:27;;;;;;;24.63;13.68;;;0.00;99.90;;;;;;5079276;28;20043;-57
2021/12/23 05:42:53;;;;;;;24.17;15.13;;;0.00;99.90;;;;;;5078566;28;20746;-58
2021/12/23 05:45:19;;;;;;;28.33;14.90;;;0.00;99.90;;;;;;5078644;28;20104;-58
2021/12/23 05:47:46;;;;;;;23.95;15.35;;;0.00;99.90;;;;;;5078411;28;20108;-59
2021/12/23 05:50:13;;;;;;;24.50;14.40;;;0.00;99.90;;;;;;5083167;28;20067;-58
2021/12/23 05:52:39;;;;;;;24.77;15.05;;;0.10;99.90;;;;;;5098004;28;20075;-58
2021/12/23 05:55:07;;;;;;;24.42;14.55;;;0.10;99.90;;;;;;5087509;28;20106;-58
2021/12/23 05:57:33;;;;;;;28.73;16.42;;;0.10;99.90;;;;;;5078935;28;20032;-57
2021/12/23 06:00:00;;;;;;;26.13;15.43;;;0.10;99.90;;;;;;5078518;28;20587;-58
2021/12/23 06:02:26;;;;;;;24.65;15.30;;;0.10;99.90;;;;;;5078792;28;20173;-58
2021/12/23 06:04:52;;;;;;;27.63;14.70;;;0.10;99.90;;;;;;5077489;28;20847;-58
2021/12/23 06:07:18;;;;;;;30.65;17.02;;;0.10;99.90;;;;;;5078869;28;20049;-58
2021/12/23 06:09:44;;;;;;;25.52;16.08;;;0.10;99.90;;;;;;5060635;28;20101;-59
2021/12/23 06:12:10;;;;;;;23.52;14.55;;;0.10;99.90;;;;;;5077338;28;20414;-59
2021/12/23 06:14:36;;;;;;;23.98;14.10;;;0.10;99.90;;;;;;5075865;28;20079;-59
2021/12/23 06:17:02;;;;;;;27.48;16.17;;;0.10;99.90;;;;;;5073863;28;20075;-59
2021/12/23 06:19:28;;;;;;;25.77;15.05;;;0.10;99.90;;;;;;5075666;28;20076;-59
2021/12/23 06:21:54;;;;;;;27.10;14.82;;;0.20;99.90;;;;;;5074020;28;20055;-58
2021/12/23 06:24:20;;;;;;;27.42;16.33;;;0.20;99.90;;;;;;5057366;28;20056;-59
2021/12/23 06:26:46;;;;;;;27.38;16.17;;;0.20;99.90;;;;;;5073605;28;20083;-59
2021/12/23 06:29:11;;;;;;;29.52;16.48;;;0.20;99.90;;;;;;5075613;28;20055;-59
2021/12/23 06:31:37;;;;;;;28.70;17.15;;;0.20;99.90;;;;;;5074075;28;20130;-59
2021/12/23 06:34:03;;;;;;;29.40;17.98;;;0.20;99.90;;;;;;5075400;28;20080;-59
2021/12/23 06:36:29;;;;;;;29.77;17.38;;;0.10;99.90;;;;;;5073746;28;20040;-59
2021/12/23 06:38:56;;;;;;;32.05;17.25;;;0.10;99.90;;;;;;5073967;28;20040;-59
2021/12/23 06:41:22;;;;;;;32.08;17.88;;;0.20;99.90;;;;;;5075396;28;20045;-59
2021/12/23 06:43:48;;;;;;;28.92;17.65;;;0.20;99.90;;;;;;5073997;28;20063;-58
2021/12/23 06:46:14;;;;;;;31.75;16.95;;;0.20;99.90;;;;;;5075134;28;20052;-58
2021/12/23 06:48:40;;;;;;;30.20;17.40;;;0.20;99.90;;;;;;5073715;28;20048;-60
2021/12/23 06:51:05;;;;;;;30.88;17.73;;;0.20;99.90;;;;;;5086374;28;20043;-60
2021/12/23 06:53:32;;;;;;;30.00;17.98;;;0.20;99.90;;;;;;5094907;28;20040;-58
2021/12/23 06:56:00;;;;;;;30.67;16.95;;;0.20;99.90;;;;;;5076982;28;20056;-58
2021/12/23 06:58:26;;;;;;;29.45;16.55;;;0.20;99.90;;;;;;5074383;28;20048;-58
2021/12/23 07:00:53;;;;;;;27.67;16.42;;;0.20;99.90;;;;;;5072669;28;20045;-57
2021/12/23 07:03:20;;;;;;;28.42;17.88;;;0.20;99.90;;;;;;5074286;28;20070;-58
2021/12/23 07:05:46;;;;;;;26.98;16.33;;;0.10;99.90;;;;;;5074787;28;20063;-57
2021/12/23 07:08:24;;;;;;;28.30;16.85;;;0.10;99.90;;;;;;5074283;28;20052;-57
2021/12/23 07:10:50;;;;;;;30.95;17.42;;;0.10;99.90;;;;;;5073061;28;20052;-57
2021/12/23 07:13:16;;;;;;;30.25;17.55;;;0.10;99.90;;;;;;5073810;28;20070;-57
2021/12/23 07:15:42;;;;;;;30.90;17.08;;;0.10;99.90;;;;;;5073705;28;20044;-57
2021/12/23 07:18:08;;;;;;;30.67;18.25;;;0.10;99.90;;;;;;5074246;28;20053;-57
2021/12/23 07:20:33;;;;;;;29.98;17.83;;;0.10;99.90;;;;;;5074252;28;20044;-57
2021/12/23 07:23:00;;;;;;;27.58;17.02;;;0.20;99.90;;;;;;5074251;28;20099;-58
2021/12/23 07:25:27;;;;;;;33.55;19.55;;;0.10;99.90;;;;;;5073676;28;20416;-58
2021/12/23 07:27:53;;;;;;;30.52;17.77;;;0.10;99.90;;;;;;5072843;28;20059;-59
2021/12/23 07:30:21;;;;;;;27.75;17.20;;;0.10;99.90;;;;;;5073535;28;20466;-58
2021/12/23 07:32:49;;;;;;;29.00;17.75;;;0.10;99.90;;;;;;5074270;28;20166;-59
2021/12/23 07:35:15;;;;;;;28.75;18.42;;;0.10;99.90;;;;;;5056838;28;20064;-59
2021/12/23 07:37:42;;;;;;;32.22;17.90;;;0.10;99.90;;;;;;5056317;28;20337;-59
2021/12/23 07:40:09;;;;;;;31.70;18.20;;;0.10;99.90;;;;;;5074002;28;20439;-59
2021/12/23 07:42:36;;;;;;;33.85;17.52;;;0.10;99.90;;;;;;5074152;28;20115;-59
2021/12/23 07:45:05;;;;;;;31.48;17.67;;;0.10;99.90;;;;;;5073733;28;20056;-59
2021/12/23 07:47:32;;;;;;;33.78;18.55;;;0.10;99.90;;;;;;5073666;28;20051;-59
2021/12/23 07:49:58;;;;;;;33.60;18.88;;;0.10;99.90;;;;;;5076229;28;20427;-59
2021/12/23 07:52:24;;;;;;;31.17;19.23;;;0.10;99.90;;;;;;5093851;28;20055;-60
2021/12/23 07:54:52;;;;;;;32.35;19.13;;;0.10;99.90;;;;;;5085832;28;20440;-59
2021/12/23 07:57:18;;;;;;;33.55;19.33;;;0.10;99.90;;;;;;5074078;28;20044;-57
2021/12/23 07:59:44;;;;;;;31.02;19.30;;;0.10;99.90;;;;;;5073612;28;20051;-59
2021/12/23 08:02:09;;;;;;;33.17;18.25;;;0.10;99.90;;;;;;5073652;28;20052;-58
2021/12/23 08:04:36;;;;;;;31.95;18.70;;;0.10;99.90;;;;;;5073174;28;20048;-59
2021/12/23 08:07:03;;;;;;;31.30;17.95;;;0.00;99.90;;;;;;5073253;28;20060;-59
2021/12/23 08:09:30;;;;;;;32.47;18.15;;;0.10;99.90;;;;;;5073245;28;21263;-60
2021/12/23 08:11:56;;;;;;;30.65;17.35;;;0.10;99.90;;;;;;5077272;28;20058;-61
2021/12/23 08:14:22;;;;;;;32.28;18.60;;;0.10;99.90;;;;;;5077342;28;20052;-58
2021/12/23 08:16:48;;;;;;;32.92;18.88;;;0.10;99.90;;;;;;5077541;28;20144;-62
2021/12/23 08:19:14;;;;;;;30.80;18.95;;;0.10;99.90;;;;;;5076038;28;20070;-61
2021/12/23 08:21:40;;;;;;;31.80;18.17;;;0.00;99.90;;;;;;5077475;28;20053;-62
2021/12/23 08:24:06;;;;;;;31.38;19.73;;;0.00;99.90;;;;;;5077370;28;20048;-62
2021/12/23 08:26:39;;;;;;;31.92;20.00;;;0.10;99.90;;;;;;5076922;28;20112;-62
2021/12/23 08:29:06;;;;;;;29.98;17.45;;;0.10;99.90;;;;;;5076064;28;20513;-62
2021/12/23 08:31:32;;;;;;;35.45;20.23;;;0.10;99.90;;;;;;5077423;28;20045;-63
2021/12/23 08:33:58;;;;;;;34.88;20.23;;;0.10;99.90;;;;;;5077349;28;20071;-60
2021/12/23 08:36:24;;;;;;;35.85;21.08;;;0.00;99.90;;;;;;5077299;28;20044;-62
2021/12/23 08:38:50;;;;;;;32.67;19.10;;;0.00;99.90;;;;;;5075243;28;20099;-61
2021/12/23 08:41:16;;;;;;;35.00;20.67;;;0.00;99.90;;;;;;5077207;28;20055;-61
2021/12/23 08:43:44;;;;;;;36.40;20.00;;;0.00;99.90;;;;;;5075601;28;20044;-61
2021/12/23 08:46:10;;;;;;;35.80;20.55;;;0.10;99.90;;;;;;5075869;28;20518;-61
2021/12/23 08:48:36;;;;;;;36.75;21.27;;;0.00;99.90;;;;;;5077176;28;20059;-61
2021/12/23 08:51:03;;;;;;;35.22;19.73;;;0.10;99.90;;;;;;5088241;28;20048;-61
2021/12/23 08:53:28;;;;;;;37.20;20.58;;;0.10;99.90;;;;;;5097356;28;20059;-61
2021/12/23 08:55:54;;;;;;;37.92;21.52;;;0.10;99.90;;;;;;5079747;28;20044;-61
2021/12/23 08:58:20;;;;;;;36.38;22.52;;;0.10;99.90;;;;;;5077072;28;20045;-62
2021/12/23 09:00:46;;;;;;;36.85;21.38;;;0.10;99.90;;;;;;5077276;28;20057;-63
2021/12/23 09:03:12;;;;;;;36.88;22.38;;;0.10;99.90;;;;;;5077682;28;20455;-60
2021/12/23 09:05:40;;;;;;;37.10;21.92;;;0.00;99.90;;;;;;5077505;28;20783;-61
2021/12/23 09:08:07;;;;;;;37.38;22.98;;;0.10;99.90;;;;;;5076880;28;20055;-60
2021/12/23 09:10:34;;;;;;;37.38;21.23;;;0.10;99.90;;;;;;5076930;28;20416;-61
2021/12/23 09:13:00;;;;;;;37.00;21.55;;;0.10;99.90;;;;;;5059010;28;20040;-60
2021/12/23 09:15:26;;;;;;;34.03;21.77;;;0.10;99.90;;;;;;5076074;28;20032;-61
2021/12/23 09:17:53;;;;;;;36.05;21.02;;;0.10;99.90;;;;;;5076173;28;20040;-61
2021/12/23 09:20:21;;;;;;;36.58;21.98;;;0.10;99.90;;;;;;5076791;28;20048;-61
2021/12/23 09:22:48;;;;;;;40.20;21.67;;;0.10;99.90;;;;;;5075425;28;20052;-61
2021/12/23 09:25:22;;;;;;;38.78;22.98;;;0.20;99.90;;;;;;5076121;28;20059;-61
2021/12/23 09:33:02;;;;;;;37.13;22.30;;;0.20;99.90;;;;;;5075118;28;20056;-60
2021/12/23 09:35:30;;;;;;;41.13;22.35;;;0.20;99.90;;;;;;5076016;28;20045;-59
2021/12/23 09:37:56;;;;;;;39.70;23.25;;;0.20;99.90;;;;;;5076301;28;20087;-59
2021/12/23 09:40:23;;;;;;;41.53;23.45;;;0.30;99.90;;;;;;5075874;28;20049;-59
2021/12/23 09:42:50;;;;;;;44.03;24.27;;;0.20;99.90;;;;;;5075546;28;20481;-60
2021/12/23 09:45:18;;;;;;;43.13;23.80;;;0.30;99.90;;;;;;5075995;28;20481;-60
2021/12/23 09:47:47;;;;;;;43.95;23.88;;;0.30;99.90;;;;;;5078114;28;20420;-60
2021/12/23 09:50:20;;;;;;;45.42;25.30;;;0.20;99.90;;;;;;5085806;28;20050;-60
2021/12/23 09:52:49;;;;;;;44.22;25.35;;;0.20;99.90;;;;;;5083272;28;20040;-60
2021/12/23 09:55:18;;;;;;;47.47;25.98;;;0.20;99.90;;;;;;5082784;28;20534;-60
2021/12/23 09:57:46;;;;;;;47.97;26.13;;;0.20;99.90;;;;;;5076487;28;20496;-59
2021/12/23 10:00:13;;;;;;;53.00;29.20;;;0.20;99.90;;;;;;5075410;28;20055;-59
2021/12/23 10:02:41;;;;;;;51.33;28.60;;;0.20;99.90;;;;;;5075314;28;20048;-59
2021/12/23 10:05:11;;;;;;;52.05;29.10;;;0.10;99.90;;;;;;5075528;28;20051;-59
2021/12/23 10:07:38;;;;;;;51.55;25.75;;;0.20;99.90;;;;;;5075632;28;20100;-59
2021/12/23 10:26:45;;;;;;;57.28;30.88;;;0.20;99.90;;;;;;5072004;28;20070;-58
2021/12/23 10:38:14;;;;;;;67.45;32.45;;;0.30;99.90;;;;;;5074867;28;20052;-59
2021/12/23 10:40:45;;;;;;;70.43;32.63;;;0.30;99.90;;;;;;5074296;28;20065;-59
2021/12/23 10:43:41;;;;;;;70.40;34.38;;;0.30;99.90;;;;;;5072882;28;20827;-59
2021/12/23 10:46:23;;;;;;;62.72;31.38;;;0.30;99.90;;;;;;5073869;28;20054;-60
2021/12/23 10:49:04;;;;;;;67.10;33.00;;;0.30;99.90;;;;;;5073497;28;20070;-60
2021/12/23 10:52:29;;;;;;;71.70;31.67;;;0.30;99.90;;;;;;5073817;28;20094;-60
2021/12/23 11:00:27;;;;;;;72.63;34.75;;;0.30;99.90;;;;;;5066696;28;21298;-60
2021/12/23 11:03:39;;;;;;;74.28;36.40;;;0.30;99.90;;;;;;5066621;28;20059;-58
2021/12/23 11:32:13;;;;;;;70.88;34.10;;;0.40;99.90;;;;;;5069449;28;20075;-57
2021/12/23 11:41:39;;;;;;;63.47;31.90;;;0.30;99.90;;;;;;5068909;28;20048;-58
2021/12/23 11:44:06;;;;;;;69.25;33.65;;;0.30;99.90;;;;;;5067550;28;20036;-57
2021/12/23 11:46:43;;;;;;;69.43;33.55;;;0.30;99.90;;;;;;5068792;28;20107;-57
2021/12/23 11:49:12;;;;;;;69.45;34.80;;;0.30;99.90;;;;;;5069033;28;20060;-57
2021/12/23 11:51:51;;;;;;;66.93;32.55;;;0.40;99.90;;;;;;5066354;28;20053;-62
2021/12/23 11:54:24;;;;;;;78.57;32.90;;;0.40;99.90;;;;;;5064765;28;20049;-59
2021/12/23 11:56:52;;;;;;;69.35;33.28;;;0.40;99.90;;;;;;5068651;28;20045;-59
2021/12/23 11:59:19;;;;;;;72.55;33.63;;;0.40;99.90;;;;;;5067775;28;20059;-64
2021/12/23 12:01:52;;;;;;;71.68;33.92;;;0.40;99.90;;;;;;5067946;28;20064;-58
2021/12/23 12:04:35;;;;;;;67.25;32.80;;;0.30;99.90;;;;;;5083354;28;20052;-61
2021/12/23 12:07:10;;;;;;;70.30;34.38;;;0.40;99.90;;;;;;5067689;28;20110;-59
2021/12/23 12:09:38;;;;;;;68.43;32.45;;;0.40;99.90;;;;;;5068547;28;20057;-61
2021/12/23 12:12:11;;;;;;;69.13;32.35;;;0.40;99.90;;;;;;5069385;28;20059;-60
2021/12/23 12:14:40;;;;;;;70.05;31.38;;;0.50;99.90;;;;;;5068550;28;20055;-60
2021/12/23 12:17:26;;;;;;;68.85;33.33;;;0.50;99.90;;;;;;5068871;28;20127;-59
2021/12/23 12:20:01;;;;;;;66.13;31.88;;;0.50;99.90;;;;;;5068596;28;20041;-60
2021/12/23 12:22:45;;;;;;;78.75;38.90;;;0.50;99.90;;;;;;5069310;28;20036;-59
2021/12/23 12:25:23;;;;;;;64.88;31.20;;;0.50;99.90;;;;;;5069435;28;21025;-60
2021/12/23 12:27:55;;;;;;;67.28;31.88;;;0.60;99.90;;;;;;5069850;28;20049;-60
2021/12/23 12:30:34;;;;;;;82.47;40.25;;;0.60;99.90;;;;;;5070021;28;20040;-61
2021/12/23 12:33:05;;;;;;;68.50;32.35;;;0.60;99.90;;;;;;5069416;28;20048;-60
2021/12/23 12:35:31;;;;;;;84.90;42.05;;;0.60;99.90;;;;;;5069317;28;20396;-59
2021/12/23 12:38:11;;;;;;;95.80;46.70;;;0.60;99.90;;;;;;5069053;28;20036;-59
2021/12/23 12:41:25;;;;;;;83.93;41.95;;;0.60;99.90;;;;;;5067708;28;20510;-61
2021/12/23 12:44:26;;;;;;;63.42;32.50;;;0.70;99.90;;;;;;5069637;28;20060;-61
2021/12/23 12:47:02;;;;;;;66.82;32.83;;;0.70;99.90;;;;;;5069815;28;20048;-61
2021/12/23 12:49:38;;;;;;;67.65;33.38;;;0.70;99.90;;;;;;5069850;28;20471;-61
2021/12/23 12:52:21;;;;;;;72.25;33.25;;;0.70;99.90;;;;;;5051077;28;20048;-61
2021/12/23 12:54:55;;;;;;;72.63;34.70;;;0.70;99.90;;;;;;5077759;28;20093;-61
2021/12/23 12:57:25;;;;;;;70.95;33.65;;;0.70;99.90;;;;;;5085422;28;20096;-61
2021/12/23 12:59:51;;;;;;;72.47;34.30;;;0.70;99.90;;;;;;5088894;28;20830;-61
2021/12/23 13:02:37;;;;;;;64.70;32.90;;;0.70;99.90;;;;;;5091937;28;20055;-61
2021/12/23 13:05:11;;;;;;;73.38;32.70;;;0.70;99.90;;;;;;5098726;28;20048;-61
2021/12/23 13:07:42;;;;;;;70.55;32.25;;;0.70;99.90;;;;;;5098256;28;20407;-62
2021/12/23 13:10:12;;;;;;;75.55;33.60;;;0.70;99.90;;;;;;5099291;28;20127;-62
2021/12/23 13:12:53;;;;;;;73.90;34.42;;;0.70;99.90;;;;;;5099990;28;20071;-61
2021/12/23 13:15:30;;;;;;;73.57;35.28;;;0.70;99.90;;;;;;5099928;28;20059;-61
2021/12/23 13:18:01;;;;;;;67.55;32.10;;;0.70;99.90;;;;;;5100076;28;20224;-62
2021/12/23 13:20:55;;;;;;;76.03;34.53;;;0.70;99.90;;;;;;5081941;28;20108;-61
2021/12/23 13:23:32;;;;;;;74.72;33.88;;;0.60;99.90;;;;;;5100018;28;20052;-61
2021/12/23 13:26:01;;;;;;;67.88;33.88;;;0.70;99.90;;;;;;5099982;28;20115;-62
2021/12/23 13:28:54;;;;;;;74.70;32.88;;;0.70;99.90;;;;;;5099865;28;20052;-62
2021/12/23 13:31:25;;;;;;;68.82;31.98;;;0.70;99.90;;;;;;5093375;28;20058;-60
2021/12/23 13:33:57;;;;;;;67.95;32.60;;;0.80;99.90;;;;;;5100049;28;20473;-60
2021/12/23 13:36:38;;;;;;;74.10;33.63;;;0.70;99.90;;;;;;5098193;28;20155;-60
2021/12/23 13:39:27;;;;;;;72.28;34.92;;;0.80;99.90;;;;;;5099579;28;20100;-61
2021/12/23 13:41:58;;;;;;;70.20;33.17;;;0.80;99.90;;;;;;5074602;28;20040;-57
2021/12/23 13:44:32;;;;;;;71.43;30.30;;;0.80;99.90;;;;;;5071869;28;20043;-57
2021/12/23 13:47:01;;;;;;;64.97;32.28;;;0.80;99.90;;;;;;5070183;28;20052;-57
2021/12/23 13:49:47;;;;;;;67.15;32.95;;;0.80;99.90;;;;;;5071494;28;20045;-58
2021/12/23 13:52:27;;;;;;;70.40;31.98;;;0.80;99.90;;;;;;5071966;28;20472;-59
2021/12/23 13:54:55;;;;;;;72.38;32.65;;;0.80;99.90;;;;;;5071799;28;20040;-58
2021/12/23 13:57:23;;;;;;;72.80;32.05;;;0.80;99.90;;;;;;5071604;28;20051;-58
2021/12/23 13:59:52;;;;;;;74.15;33.40;;;0.70;99.90;;;;;;5053254;28;20493;-58
2021/12/23 14:02:20;;;;;;;75.05;34.45;;;0.80;99.90;;;;;;5072491;28;20046;-59